createdAt,value
2023-02-01T00:01:14.257Z,5.90
2023-02-01T00:03:41.132Z,5.90
2023-02-01T00:06:07.981Z,6.00
2023-02-01T00:08:41.145Z,6.00
2023-02-01T00:11:13.274Z,5.90
2023-02-01T00:13:48.204Z,5.90
2023-02-01T00:16:33.727Z,5.90
2023-02-01T00:19:15.199Z,5.90
2023-02-01T00:21:42.697Z,5.80
2023-02-01T00:24:21.068Z,5.70
2023-02-01T00:26:55.481Z,5.60
2023-02-01T00:29:22.450Z,5.50
2023-02-01T00:31:53.383Z,5.30
2023-02-01T00:34:23.990Z,5.30
2023-02-01T00:36:51.236Z,5.20
2023-02-01T00:39:18.329Z,5.10
2023-02-01T00:41:45.134Z,5.10
2023-02-01T00:44:12.007Z,5.00
2023-02-01T00:46:41.722Z,4.90
2023-02-01T00:49:11.307Z,4.90
2023-02-01T00:51:38.174Z,4.90
2023-02-01T00:54:05.269Z,4.80
2023-02-01T00:56:35.189Z,4.90
2023-02-01T00:59:03.883Z,4.80
2023-02-01T01:01:30.730Z,4.80
2023-02-01T01:03:59.930Z,4.80
2023-02-01T01:06:32.616Z,4.70
2023-02-01T01:09:01.660Z,4.70
2023-02-01T01:11:31.223Z,4.70
2023-02-01T01:13:59.417Z,4.60
2023-02-01T01:16:28.990Z,4.50
2023-02-01T01:18:56.554Z,4.60
2023-02-01T01:21:23.333Z,4.60
2023-02-01T01:23:50.336Z,4.50
2023-02-01T01:26:20.041Z,4.50
2023-02-01T01:28:47.343Z,4.50
2023-02-01T01:31:17.180Z,4.50
2023-02-01T01:33:45.001Z,4.50
2023-02-01T01:36:13.459Z,4.60
2023-02-01T01:38:41.496Z,4.50
2023-02-01T01:41:11.084Z,4.50
2023-02-01T01:43:55.023Z,4.40
2023-02-01T01:46:43.309Z,4.40
2023-02-01T01:49:20.604Z,4.40
2023-02-01T01:51:55.547Z,4.40
2023-02-01T01:54:24.169Z,4.30
2023-02-01T01:56:54.997Z,4.30
2023-02-01T01:59:26.660Z,4.30
2023-02-01T02:01:56.791Z,4.30
2023-02-01T02:04:31.609Z,4.20
2023-02-01T02:07:08.484Z,4.20
2023-02-01T02:09:35.458Z,4.20
2023-02-01T02:14:43.360Z,4.20
2023-02-01T02:18:01.840Z,4.20
2023-02-01T02:20:57.981Z,4.20
2023-02-01T02:23:50.807Z,4.20
2023-02-01T02:26:58.673Z,4.20
2023-02-01T02:30:04.004Z,4.20
2023-02-01T02:32:39.538Z,4.10
2023-02-01T02:35:29.774Z,4.10
2023-02-01T02:38:09.121Z,4.00
2023-02-01T02:40:59.241Z,3.90
2023-02-01T02:44:17.282Z,3.90
2023-02-01T02:47:08.700Z,3.90
2023-02-01T02:49:45.043Z,4.00
2023-02-01T02:52:39.746Z,4.10
2023-02-01T02:55:09.635Z,4.00
2023-02-01T02:57:59.133Z,4.00
2023-02-01T03:00:49.021Z,4.00
2023-02-01T03:03:34.765Z,4.00
2023-02-01T03:06:01.802Z,4.20
2023-02-01T03:08:32.328Z,4.30
2023-02-01T03:11:16.060Z,4.30
2023-02-01T03:13:52.163Z,4.40
2023-02-01T03:16:44.338Z,4.50
2023-02-01T03:19:11.196Z,4.60
2023-02-01T03:22:09.517Z,4.70
2023-02-01T03:24:42.431Z,4.70
2023-02-01T03:27:11.573Z,4.80
2023-02-01T03:29:45.096Z,4.80
2023-02-01T03:32:11.984Z,4.80
2023-02-01T03:34:39.633Z,4.80
2023-02-01T03:37:11.102Z,4.80
2023-02-01T03:39:45.435Z,4.80
2023-02-01T03:42:20.393Z,4.80
2023-02-01T03:45:15.202Z,4.80
2023-02-01T03:47:45.993Z,4.90
2023-02-01T03:50:16.762Z,4.90
2023-02-01T03:52:54.310Z,4.90
2023-02-01T03:55:24.475Z,4.90
2023-02-01T03:58:02.565Z,5.00
2023-02-01T04:00:29.670Z,5.00
2023-02-01T04:02:56.954Z,5.00
2023-02-01T04:05:24.409Z,5.00
2023-02-01T04:07:58.313Z,5.00
2023-02-01T04:10:25.549Z,4.90
2023-02-01T04:12:53.376Z,4.90
2023-02-01T04:15:20.163Z,4.80
2023-02-01T04:17:46.957Z,4.80
2023-02-01T04:20:13.720Z,4.70
2023-02-01T04:22:40.541Z,4.70
2023-02-01T04:25:09.020Z,4.60
2023-02-01T04:27:37.143Z,4.60
2023-02-01T04:30:05.696Z,4.60
2023-02-01T04:32:39.451Z,4.50
2023-02-01T04:35:09.977Z,4.50
2023-02-01T04:37:40.087Z,4.50
2023-02-01T04:40:07.640Z,4.50
2023-02-01T04:42:35.035Z,4.50
2023-02-01T04:45:04.829Z,4.60
2023-02-01T04:47:31.704Z,4.50
2023-02-01T04:49:58.713Z,4.50
2023-02-01T04:52:25.533Z,4.40
2023-02-01T04:54:55.409Z,4.50
2023-02-01T04:57:22.621Z,4.50
2023-02-01T04:59:49.354Z,4.50
2023-02-01T05:02:16.167Z,4.50
2023-02-01T05:04:43.262Z,4.50
2023-02-01T05:07:13.145Z,4.50
2023-02-01T05:09:40.327Z,4.50
2023-02-01T05:12:29.500Z,4.40
2023-02-01T05:14:56.285Z,4.40
2023-02-01T05:17:23.087Z,4.40
2023-02-01T05:19:49.861Z,4.50
2023-02-01T05:22:16.726Z,4.40
2023-02-01T05:24:43.505Z,4.40
2023-02-01T05:27:14.653Z,4.40
2023-02-01T05:29:41.524Z,4.40
2023-02-01T05:32:21.621Z,4.40
2023-02-01T05:34:49.670Z,4.30
2023-02-01T05:37:16.773Z,4.40
2023-02-01T05:39:46.091Z,4.40
2023-02-01T05:42:13.112Z,4.30
2023-02-01T05:44:39.879Z,4.40
2023-02-01T05:47:06.972Z,4.40
2023-02-01T05:49:34.166Z,4.40
2023-02-01T05:52:01.305Z,4.40
2023-02-01T05:54:28.079Z,4.40
2023-02-01T05:56:57.588Z,4.40
2023-02-01T05:59:24.424Z,4.50
2023-02-01T06:01:51.621Z,4.50
2023-02-01T06:04:18.410Z,4.60
2023-02-01T06:06:46.665Z,4.60
2023-02-01T06:09:30.081Z,4.70
2023-02-01T06:12:03.248Z,4.70
2023-02-01T06:14:31.023Z,4.80
2023-02-01T06:16:57.852Z,4.90
2023-02-01T06:19:34.569Z,4.90
2023-02-01T06:22:01.312Z,5.00
2023-02-01T06:24:31.078Z,5.00
2023-02-01T06:26:59.394Z,5.00
2023-02-01T06:29:27.659Z,5.10
2023-02-01T06:31:54.627Z,5.10
2023-02-01T06:34:23.366Z,5.10
2023-02-01T06:36:50.439Z,5.10
2023-02-01T06:39:22.416Z,5.10
2023-02-01T06:41:54.919Z,5.10
2023-02-01T06:44:25.384Z,5.10
2023-02-01T06:46:52.243Z,5.10
2023-02-01T06:49:20.884Z,5.20
2023-02-01T06:51:47.646Z,5.20
2023-02-01T06:54:15.123Z,5.20
2023-02-01T06:56:41.904Z,5.20
2023-02-01T06:59:09.137Z,5.20
2023-02-01T07:01:36.329Z,5.20
2023-02-01T07:04:03.169Z,5.30
2023-02-01T07:06:29.915Z,5.40
2023-02-01T07:08:58.010Z,5.40
2023-02-01T07:11:24.986Z,5.40
2023-02-01T07:13:51.799Z,5.50
2023-02-01T07:16:20.986Z,5.40
2023-02-01T07:18:48.388Z,5.50
2023-02-01T07:21:15.148Z,5.50
2023-02-01T07:23:42.113Z,5.50
2023-02-01T07:26:13.287Z,5.50
2023-02-01T07:28:40.485Z,5.50
2023-02-01T07:31:16.498Z,5.50
2023-02-01T07:33:43.506Z,5.60
2023-02-01T07:36:13.858Z,5.60
2023-02-01T07:38:40.592Z,5.60
2023-02-01T07:41:09.053Z,5.60
2023-02-01T07:43:36.606Z,5.60
2023-02-01T07:46:04.701Z,5.70
2023-02-01T07:48:32.057Z,5.70
2023-02-01T07:51:05.081Z,5.60
2023-02-01T07:53:33.135Z,5.60
2023-02-01T07:56:00.227Z,5.50
2023-02-01T07:58:27.519Z,5.50
2023-02-01T08:01:13.199Z,5.50
2023-02-01T08:03:40.425Z,5.40
2023-02-01T08:06:07.506Z,5.50
2023-02-01T08:08:34.487Z,5.50
2023-02-01T08:11:02.755Z,5.50
2023-02-01T08:13:29.492Z,5.50
2023-02-01T08:16:05.250Z,5.60
2023-02-01T08:18:32.526Z,5.60
2023-02-01T08:21:24.001Z,5.60
2023-02-01T08:23:51.277Z,5.60
2023-02-01T08:26:21.314Z,5.60
2023-02-01T08:29:01.931Z,5.70
2023-02-01T08:31:30.278Z,5.70
2023-02-01T08:33:59.336Z,5.80
2023-02-01T08:36:28.609Z,5.80
2023-02-01T08:38:55.452Z,5.80
2023-02-01T08:41:25.063Z,5.90
2023-02-01T08:43:51.999Z,5.90
2023-02-01T08:46:18.890Z,6.00
2023-02-01T08:48:48.088Z,6.00
2023-02-01T08:51:16.486Z,6.10
2023-02-01T08:53:43.629Z,6.20
2023-02-01T08:56:12.833Z,6.30
2023-02-01T08:58:39.987Z,6.20
2023-02-01T09:01:08.620Z,6.20
2023-02-01T09:03:35.920Z,6.20
2023-02-01T09:06:04.778Z,6.10
2023-02-01T09:08:31.807Z,6.10
2023-02-01T09:11:06.485Z,6.10
2023-02-01T09:13:34.765Z,6.20
2023-02-01T09:16:01.581Z,6.30
2023-02-01T09:18:28.476Z,6.40
2023-02-01T09:20:55.206Z,6.50
2023-02-01T09:23:21.989Z,6.60
2023-02-01T09:25:51.367Z,6.60
2023-02-01T09:28:19.266Z,6.70
2023-02-01T09:30:46.430Z,6.70
2023-02-01T09:33:13.355Z,6.70
2023-02-01T09:35:40.174Z,6.70
2023-02-01T09:38:06.925Z,6.60
2023-02-01T09:40:36.395Z,6.50
2023-02-01T09:43:26.245Z,6.50
2023-02-01T09:46:15.829Z,6.60
2023-02-01T09:48:45.030Z,6.70
2023-02-01T09:51:18.092Z,6.80
2023-02-01T09:53:49.481Z,6.90
2023-02-01T09:56:25.849Z,6.90
2023-02-01T09:58:56.321Z,7.00
2023-02-01T10:01:25.542Z,7.10
2023-02-01T10:04:02.552Z,7.10
2023-02-01T10:06:38.483Z,7.20
2023-02-01T10:09:20.351Z,7.30
2023-02-01T10:12:05.985Z,7.40
2023-02-01T10:14:58.865Z,7.40
2023-02-01T10:17:44.990Z,7.40
2023-02-01T10:20:31.005Z,7.30
2023-02-01T10:23:34.007Z,7.20
2023-02-01T10:26:06.517Z,7.20
2023-02-01T10:28:37.720Z,7.30
2023-02-01T10:31:05.098Z,7.30
2023-02-01T10:34:13.770Z,7.30
2023-02-01T10:36:45.723Z,7.40
2023-02-01T10:39:15.349Z,7.50
2023-02-01T10:41:43.972Z,7.60
2023-02-01T10:44:16.395Z,7.50
2023-02-01T10:46:43.521Z,7.50
2023-02-01T10:49:18.391Z,7.40
2023-02-01T10:51:54.633Z,7.40
2023-02-01T10:54:39.384Z,7.40
2023-02-01T10:57:22.486Z,7.50
2023-02-01T10:59:49.287Z,7.50
2023-02-01T11:02:35.675Z,7.60
2023-02-01T11:05:13.432Z,7.60
2023-02-01T11:07:47.048Z,7.60
2023-02-01T11:10:38.347Z,7.70
2023-02-01T11:13:06.175Z,7.70
2023-02-01T11:15:32.937Z,7.80
2023-02-01T11:18:16.794Z,7.80
2023-02-01T11:20:45.013Z,7.80
2023-02-01T11:23:20.827Z,7.90
2023-02-01T11:25:56.186Z,7.80
2023-02-01T11:28:27.917Z,7.80
2023-02-01T11:30:57.045Z,7.80
2023-02-01T11:33:32.208Z,7.80
2023-02-01T11:35:59.668Z,7.80
2023-02-01T11:38:34.660Z,7.80
2023-02-01T11:41:21.377Z,7.80
2023-02-01T11:43:55.432Z,7.90
2023-02-01T11:46:26.349Z,7.90
2023-02-01T11:48:54.889Z,8.00
2023-02-01T11:51:29.124Z,8.10
2023-02-01T11:54:19.865Z,8.10
2023-02-01T11:57:06.771Z,8.10
2023-02-01T11:59:48.679Z,8.10
2023-02-01T12:02:46.765Z,8.00
2023-02-01T12:05:32.236Z,7.90
2023-02-01T12:08:23.578Z,7.90
2023-02-01T12:11:05.698Z,7.80
2023-02-01T12:14:07.250Z,7.80
2023-02-01T12:16:58.025Z,7.80
2023-02-01T12:19:48.814Z,7.90
2023-02-01T12:22:30.660Z,7.90
2023-02-01T12:25:33.799Z,7.90
2023-02-01T12:28:19.550Z,7.90
2023-02-01T12:33:34.962Z,8.00
2023-02-01T12:36:17.076Z,8.00
2023-02-01T12:38:52.240Z,8.00
2023-02-01T12:41:33.989Z,8.10
2023-02-01T12:44:09.137Z,8.20
2023-02-01T12:46:44.591Z,8.20
2023-02-01T12:49:49.473Z,8.10
2023-02-01T12:52:27.486Z,8.20
2023-02-01T12:55:03.988Z,8.20
2023-02-01T12:57:38.153Z,8.20
2023-02-01T13:00:10.971Z,8.20
2023-02-01T13:02:59.074Z,8.10
2023-02-01T13:05:36.155Z,8.10
2023-02-01T13:08:15.199Z,8.10
2023-02-01T13:10:54.555Z,8.10
2023-02-01T13:13:33.600Z,8.00
2023-02-01T13:16:28.246Z,8.10
2023-02-01T13:19:01.572Z,8.10
2023-02-01T13:21:33.023Z,8.20
2023-02-01T13:24:00.026Z,8.30
2023-02-01T13:26:26.844Z,8.30
2023-02-01T13:29:07.623Z,8.30
2023-02-01T13:31:56.221Z,8.30
2023-02-01T13:34:55.118Z,8.30
2023-02-01T13:37:47.283Z,8.50
2023-02-01T13:40:22.743Z,8.50
2023-02-01T13:42:51.498Z,8.60
2023-02-01T13:45:23.740Z,8.80
2023-02-01T13:47:56.650Z,8.80
2023-02-01T13:50:30.866Z,8.70
2023-02-01T13:53:12.865Z,8.70
2023-02-01T13:55:42.330Z,8.60
2023-02-01T13:58:20.942Z,8.50
2023-02-01T14:00:49.701Z,8.50
2023-02-01T14:03:21.889Z,8.50
2023-02-01T14:05:51.458Z,8.50
2023-02-01T14:08:38.568Z,8.50
2023-02-01T14:11:06.440Z,8.50
2023-02-01T14:13:37.167Z,8.40
2023-02-01T14:16:04.040Z,8.40
2023-02-01T14:18:42.943Z,8.40
2023-02-01T14:22:00.014Z,8.40
2023-02-01T14:24:31.379Z,8.40
2023-02-01T14:27:16.777Z,8.50
2023-02-01T14:29:56.035Z,8.50
2023-02-01T14:32:27.793Z,8.50
2023-02-01T14:34:58.204Z,8.50
2023-02-01T14:37:30.007Z,8.50
2023-02-01T14:40:05.689Z,8.40
2023-02-01T14:42:40.982Z,8.40
2023-02-01T14:45:20.147Z,8.40
2023-02-01T14:47:51.974Z,8.50
2023-02-01T14:50:21.946Z,8.50
2023-02-01T14:53:05.449Z,8.50
2023-02-01T14:55:36.707Z,8.50
2023-02-01T14:58:11.104Z,8.40
2023-02-01T15:00:38.065Z,8.40
2023-02-01T15:03:23.686Z,8.30
2023-02-01T15:05:58.023Z,8.30
2023-02-01T15:08:36.020Z,8.40
2023-02-01T15:11:07.703Z,8.30
2023-02-01T15:13:34.548Z,8.30
2023-02-01T15:16:10.024Z,8.20
2023-02-01T15:18:37.304Z,8.30
2023-02-01T15:21:28.043Z,8.20
2023-02-01T15:24:15.247Z,8.20
2023-02-01T15:26:42.248Z,8.20
2023-02-01T15:29:13.511Z,8.10
2023-02-01T15:31:46.492Z,8.10
2023-02-01T15:34:16.926Z,8.10
2023-02-01T15:37:00.286Z,8.10
2023-02-01T15:39:30.480Z,8.10
2023-02-01T15:42:02.953Z,8.10
2023-02-01T15:44:48.247Z,8.10
2023-02-01T15:47:19.087Z,8.00
2023-02-01T15:49:55.136Z,8.10
2023-02-01T15:52:27.381Z,8.00
2023-02-01T15:54:58.183Z,8.00
2023-02-01T15:57:34.622Z,8.00
2023-02-01T16:00:08.364Z,8.00
2023-02-01T16:02:45.046Z,8.00
2023-02-01T16:05:39.767Z,8.00
2023-02-01T16:08:14.948Z,8.00
2023-02-01T16:10:51.745Z,8.00
2023-02-01T16:13:41.550Z,8.00
2023-02-01T16:16:15.487Z,8.00
2023-02-01T16:18:43.810Z,8.00
2023-02-01T16:21:18.584Z,8.00
2023-02-01T16:23:49.011Z,8.00
2023-02-01T16:26:15.833Z,7.90
2023-02-01T16:28:42.584Z,7.90
2023-02-01T16:31:21.337Z,7.90
2023-02-01T16:33:50.950Z,8.00
2023-02-01T16:36:18.824Z,8.00
2023-02-01T16:38:47.600Z,7.90
2023-02-01T16:41:25.489Z,8.00
2023-02-01T16:43:57.149Z,7.90
2023-02-01T16:46:33.634Z,7.90
2023-02-01T16:49:00.731Z,7.90
2023-02-01T16:51:33.068Z,7.90
2023-02-01T16:54:01.515Z,7.90
2023-02-01T16:56:36.943Z,7.80
2023-02-01T16:59:04.035Z,7.80
2023-02-01T17:01:32.266Z,7.90
2023-02-01T17:03:59.234Z,7.90
2023-02-01T17:06:28.797Z,7.90
2023-02-01T17:09:07.325Z,7.90
2023-02-01T17:11:41.317Z,7.90
2023-02-01T17:14:32.508Z,7.90
2023-02-01T17:17:01.480Z,7.90
2023-02-01T17:19:28.283Z,7.90
2023-02-01T17:22:04.575Z,7.80
2023-02-01T17:24:47.696Z,7.80
2023-02-01T17:27:19.609Z,7.90
2023-02-01T17:29:47.205Z,7.90
2023-02-01T17:32:23.307Z,7.80
2023-02-01T17:34:50.596Z,7.90
2023-02-01T17:37:27.252Z,7.90
2023-02-01T17:39:56.959Z,7.90
2023-02-01T17:42:26.243Z,7.90
2023-02-01T17:44:56.942Z,7.90
2023-02-01T17:47:23.825Z,7.90
2023-02-01T17:49:56.328Z,7.90
2023-02-01T17:52:25.152Z,7.90
2023-02-01T17:54:54.156Z,7.90
2023-02-01T17:57:21.511Z,7.90
2023-02-01T17:59:48.364Z,7.90
2023-02-01T18:02:25.615Z,7.90
2023-02-01T18:04:52.659Z,7.80
2023-02-01T18:07:19.563Z,7.90
2023-02-01T18:09:46.312Z,7.90
2023-02-01T18:12:25.522Z,7.90
2023-02-01T18:14:52.329Z,7.90
2023-02-01T18:17:19.324Z,7.80
2023-02-01T18:19:46.162Z,7.80
2023-02-01T18:22:17.947Z,7.80
2023-02-01T18:24:44.760Z,7.70
2023-02-01T18:27:11.522Z,7.70
2023-02-01T18:29:38.268Z,7.70
2023-02-01T18:32:05.186Z,7.70
2023-02-01T18:34:32.072Z,7.70
2023-02-01T18:36:58.835Z,7.70
2023-02-01T18:39:25.603Z,7.70
2023-02-01T18:41:52.386Z,7.80
2023-02-01T18:44:19.218Z,7.80
2023-02-01T18:46:46.047Z,7.80
2023-02-01T18:49:14.110Z,7.80
2023-02-01T18:51:42.584Z,7.90
2023-02-01T18:54:10.979Z,7.90
2023-02-01T18:56:38.067Z,7.90
2023-02-01T18:59:05.136Z,7.90
2023-02-01T19:01:31.900Z,7.90
2023-02-01T19:04:07.297Z,7.90
2023-02-01T19:06:36.803Z,7.90
2023-02-01T19:09:03.601Z,7.90
2023-02-01T19:11:30.539Z,7.90
2023-02-01T19:13:57.308Z,7.90
2023-02-01T19:16:24.137Z,8.00
2023-02-01T19:18:52.309Z,8.00
2023-02-01T19:21:19.292Z,8.00
2023-02-01T19:23:46.117Z,8.00
2023-02-01T19:26:15.308Z,8.00
2023-02-01T19:28:44.696Z,8.00
2023-02-01T19:31:11.554Z,7.90
2023-02-01T19:33:38.441Z,8.00
2023-02-01T19:36:09.369Z,8.00
2023-02-01T19:38:36.287Z,7.90
2023-02-01T19:41:03.175Z,8.00
2023-02-01T19:43:29.906Z,8.00
2023-02-01T19:45:57.535Z,8.00
2023-02-01T19:48:24.332Z,8.00
2023-02-01T19:50:51.028Z,8.00
2023-02-01T19:53:19.404Z,8.10
2023-02-01T19:55:46.931Z,8.00
2023-02-01T19:58:14.664Z,8.10
2023-02-01T20:00:40.940Z,8.10
2023-02-01T20:03:07.777Z,8.10
2023-02-01T20:05:34.608Z,8.10
2023-02-01T20:08:01.558Z,8.10
2023-02-01T20:10:28.400Z,8.20
2023-02-01T20:12:55.263Z,8.20
2023-02-01T20:15:24.744Z,8.20
2023-02-01T20:17:51.839Z,8.20
2023-02-01T20:20:18.910Z,8.30
2023-02-01T20:22:45.624Z,8.30
2023-02-01T20:25:12.526Z,8.30
2023-02-01T20:27:40.241Z,8.30
2023-02-01T20:30:07.683Z,8.20
2023-02-01T20:32:34.512Z,8.20
2023-02-01T20:35:01.244Z,8.10
2023-02-01T20:37:28.128Z,8.20
2023-02-01T20:39:54.884Z,8.20
2023-02-01T20:42:21.650Z,8.20
2023-02-01T20:44:48.510Z,8.10
2023-02-01T20:47:15.221Z,8.10
2023-02-01T20:49:42.055Z,8.10
2023-02-01T20:52:08.827Z,8.10
2023-02-01T20:54:35.631Z,8.10
2023-02-01T20:57:02.580Z,8.10
2023-02-01T20:59:29.325Z,8.00
2023-02-01T21:01:56.068Z,8.10
2023-02-01T21:04:27.588Z,8.10
2023-02-01T21:06:55.847Z,8.10
2023-02-01T21:09:23.343Z,8.10
2023-02-01T21:11:52.609Z,8.10
2023-02-01T21:14:20.754Z,8.10
2023-02-01T21:16:48.629Z,8.10
2023-02-01T21:19:17.778Z,8.20
2023-02-01T21:21:44.671Z,8.20
2023-02-01T21:24:11.431Z,8.20
2023-02-01T21:26:41.226Z,8.20
2023-02-01T21:29:11.166Z,8.20
2023-02-01T21:31:38.748Z,8.20
2023-02-01T21:34:06.865Z,8.20
2023-02-01T21:36:35.105Z,8.30
2023-02-01T21:39:04.149Z,8.30
2023-02-01T21:41:51.409Z,8.30
2023-02-01T21:44:18.322Z,8.30
2023-02-01T21:46:45.568Z,8.30
2023-02-01T21:49:12.716Z,8.30
2023-02-01T21:51:39.933Z,8.20
2023-02-01T21:54:08.949Z,8.20
2023-02-01T21:56:36.981Z,8.30
2023-02-01T21:59:04.382Z,8.20
2023-02-01T22:01:31.402Z,8.20
2023-02-01T22:03:58.132Z,8.30
2023-02-01T22:06:28.388Z,8.20
2023-02-01T22:08:55.613Z,8.20
2023-02-01T22:11:22.747Z,8.30
2023-02-01T22:13:49.860Z,8.30
2023-02-01T22:16:18.300Z,8.30
2023-02-01T22:18:46.958Z,8.20
2023-02-01T22:21:14.152Z,8.20
2023-02-01T22:23:40.906Z,8.20
2023-02-01T22:26:15.861Z,8.20
2023-02-01T22:28:43.685Z,8.20
2023-02-01T22:31:11.875Z,8.20
2023-02-01T22:33:40.502Z,8.30
2023-02-01T22:36:08.999Z,8.20
2023-02-01T22:38:36.355Z,8.20
2023-02-01T22:41:06.153Z,8.20
2023-02-01T22:43:34.984Z,8.20
2023-02-01T22:46:07.550Z,8.10
2023-02-01T22:48:41.074Z,8.10
2023-02-01T22:51:13.298Z,8.10
2023-02-01T22:53:40.790Z,8.00
2023-02-01T22:56:07.863Z,8.00
2023-02-01T22:58:38.757Z,8.00
2023-02-01T23:01:08.796Z,8.00
2023-02-01T23:03:37.302Z,8.10
2023-02-01T23:06:05.819Z,8.10
2023-02-01T23:08:35.357Z,8.10
2023-02-01T23:11:04.572Z,8.00
2023-02-01T23:13:33.068Z,7.90
2023-02-01T23:16:03.816Z,7.80
2023-02-01T23:18:30.661Z,7.80
2023-02-01T23:21:01.916Z,7.70
2023-02-01T23:23:28.876Z,7.70
2023-02-01T23:25:55.763Z,7.60
2023-02-01T23:28:26.349Z,7.60
2023-02-01T23:30:53.337Z,7.50
2023-02-01T23:33:27.312Z,7.50
2023-02-01T23:35:58.780Z,7.40
2023-02-01T23:38:27.723Z,7.40
2023-02-01T23:40:59.284Z,7.30
2023-02-01T23:43:45.233Z,7.30
2023-02-01T23:46:13.465Z,7.30
2023-02-01T23:48:40.188Z,7.40
2023-02-01T23:51:07.073Z,7.40
2023-02-01T23:53:33.971Z,7.50
2023-02-01T23:56:01.254Z,7.50
2023-02-01T23:58:27.990Z,7.60
